createdAt,value
2022-08-28T00:00:31.079Z,19.96
2022-08-28T00:03:08.711Z,19.88
2022-08-28T00:05:39.853Z,19.79
2022-08-28T00:08:10.127Z,19.74
2022-08-28T00:10:40.264Z,19.74
2022-08-28T00:13:15.577Z,19.71
2022-08-28T00:15:43.823Z,19.66
2022-08-28T00:18:12.317Z,19.72
2022-08-28T00:20:40.763Z,19.77
2022-08-28T00:23:09.170Z,19.76
2022-08-28T00:25:37.378Z,19.74
2022-08-28T00:28:08.892Z,19.71
2022-08-28T00:30:42.193Z,19.68
2022-08-28T00:33:22.845Z,19.65
2022-08-28T00:35:51.845Z,19.63
2022-08-28T00:38:21.830Z,19.61
2022-08-28T00:40:53.350Z,19.55
2022-08-28T00:43:33.909Z,19.45
2022-08-28T00:46:04.916Z,19.44
2022-08-28T00:48:33.499Z,19.42
2022-08-28T00:51:22.918Z,19.40
2022-08-28T00:53:58.445Z,19.39
2022-08-28T00:56:29.750Z,19.38
2022-08-28T00:59:02.996Z,19.36
2022-08-28T01:01:31.499Z,19.35
2022-08-28T01:04:01.013Z,19.33
2022-08-28T01:06:29.099Z,19.33
2022-08-28T01:08:57.469Z,19.30
2022-08-28T01:11:29.207Z,19.25
2022-08-28T01:14:00.692Z,19.20
2022-08-28T01:16:33.944Z,19.15
2022-08-28T01:19:08.125Z,19.05
2022-08-28T01:21:47.237Z,18.92
2022-08-28T01:24:18.736Z,18.82
2022-08-28T01:26:47.486Z,18.77
2022-08-28T01:29:16.492Z,18.72
2022-08-28T01:31:44.711Z,18.66
2022-08-28T01:34:13.857Z,18.62
2022-08-28T01:36:42.854Z,18.61
2022-08-28T01:39:18.519Z,18.56
2022-08-28T01:41:52.076Z,18.53
2022-08-28T01:44:24.542Z,18.50
2022-08-28T01:46:55.980Z,18.47
2022-08-28T01:49:25.297Z,18.43
2022-08-28T01:51:54.732Z,18.40
2022-08-28T01:54:26.701Z,18.35
2022-08-28T01:56:55.577Z,18.31
2022-08-28T01:59:23.745Z,18.30
2022-08-28T02:01:51.939Z,18.31
2022-08-28T02:04:20.221Z,18.34
2022-08-28T02:06:56.290Z,18.37
2022-08-28T02:09:24.444Z,18.37
2022-08-28T02:11:54.100Z,18.39
2022-08-28T02:14:22.739Z,18.44
2022-08-28T02:16:51.346Z,18.50
2022-08-28T02:19:21.004Z,18.57
2022-08-28T02:21:49.604Z,18.64
2022-08-28T02:24:17.759Z,18.73
2022-08-28T02:26:45.897Z,18.76
2022-08-28T02:29:14.585Z,18.75
2022-08-28T02:31:42.886Z,18.74
2022-08-28T02:34:11.691Z,18.73
2022-08-28T02:36:42.087Z,18.73
2022-08-28T02:39:11.294Z,18.72
2022-08-28T02:41:39.432Z,18.74
2022-08-28T02:44:07.573Z,18.74
2022-08-28T02:46:35.774Z,18.72
2022-08-28T02:49:03.905Z,18.68
2022-08-28T02:51:35.662Z,18.67
2022-08-28T02:54:03.880Z,18.67
2022-08-28T02:56:32.130Z,18.63
2022-08-28T02:59:00.278Z,18.55
2022-08-28T03:01:28.883Z,18.50
2022-08-28T03:03:57.604Z,18.50
2022-08-28T03:06:25.801Z,18.55
2022-08-28T03:08:53.937Z,18.57
2022-08-28T03:11:23.137Z,18.55
2022-08-28T03:13:51.335Z,18.51
2022-08-28T03:16:19.762Z,18.49
2022-08-28T03:18:47.899Z,18.47
2022-08-28T03:21:16.006Z,18.43
2022-08-28T03:23:44.395Z,18.37
2022-08-28T03:26:18.814Z,18.33
2022-08-28T03:28:52.666Z,18.31
2022-08-28T03:31:23.139Z,18.25
2022-08-28T03:33:52.062Z,18.20
2022-08-28T03:36:26.389Z,18.25
2022-08-28T03:38:56.904Z,18.30
2022-08-28T03:41:29.301Z,18.32
2022-08-28T03:44:00.326Z,18.33
2022-08-28T03:46:33.036Z,18.31
2022-08-28T03:49:03.549Z,18.26
2022-08-28T03:51:34.618Z,18.21
2022-08-28T03:54:04.178Z,18.18
2022-08-28T03:56:32.471Z,18.16
2022-08-28T03:59:02.853Z,18.17
2022-08-28T04:01:31.206Z,18.20
2022-08-28T04:03:59.406Z,18.18
2022-08-28T04:06:28.172Z,18.19
2022-08-28T04:09:00.202Z,18.18
2022-08-28T04:11:29.296Z,18.19
2022-08-28T04:13:58.106Z,18.21
2022-08-28T04:16:26.356Z,18.27
2022-08-28T04:18:54.713Z,18.34
2022-08-28T04:21:24.637Z,18.43
2022-08-28T04:23:53.854Z,18.54
2022-08-28T04:26:25.302Z,18.64
2022-08-28T04:28:55.057Z,18.73
2022-08-28T04:31:31.118Z,18.81
2022-08-28T04:34:06.112Z,18.88
2022-08-28T04:36:35.342Z,18.91
2022-08-28T04:39:06.344Z,18.93
2022-08-28T04:41:37.733Z,18.95
2022-08-28T04:44:07.241Z,18.96
2022-08-28T04:46:36.611Z,18.99
2022-08-28T04:49:06.055Z,19.02
2022-08-28T04:51:36.819Z,19.06
2022-08-28T04:54:08.197Z,19.09
2022-08-28T04:56:36.893Z,19.17
2022-08-28T04:59:05.083Z,19.24
2022-08-28T05:01:33.639Z,19.32
2022-08-28T05:04:04.060Z,19.38
2022-08-28T05:06:33.617Z,19.45
2022-08-28T05:09:04.523Z,19.50
2022-08-28T05:11:35.018Z,19.56
2022-08-28T05:14:06.511Z,19.63
2022-08-28T05:16:45.477Z,19.69
2022-08-28T05:19:15.831Z,19.74
2022-08-28T05:21:44.335Z,19.81
2022-08-28T05:24:13.869Z,19.89
2022-08-28T05:26:42.205Z,19.97
2022-08-28T05:29:11.302Z,20.02
2022-08-28T05:31:41.682Z,20.07
2022-08-28T05:34:10.675Z,20.13
2022-08-28T05:36:39.849Z,20.21
2022-08-28T05:39:11.454Z,20.29
2022-08-28T05:41:42.453Z,20.37
2022-08-28T05:44:13.104Z,20.45
2022-08-28T05:46:44.008Z,20.55
2022-08-28T05:49:13.625Z,20.63
2022-08-28T05:51:42.942Z,20.72
2022-08-28T05:54:11.862Z,20.79
2022-08-28T05:56:41.297Z,20.87
2022-08-28T05:59:10.682Z,20.96
2022-08-28T06:01:47.180Z,21.04
2022-08-28T06:04:25.450Z,21.12
2022-08-28T06:06:54.432Z,21.25
2022-08-28T06:09:29.723Z,21.37
2022-08-28T06:12:02.506Z,21.50
2022-08-28T06:14:32.548Z,21.64
2022-08-28T06:17:01.868Z,21.78
2022-08-28T06:19:32.996Z,21.90
2022-08-28T06:22:07.172Z,22.05
2022-08-28T06:24:36.621Z,22.19
2022-08-28T06:27:05.010Z,22.33
2022-08-28T06:29:33.583Z,22.46
2022-08-28T06:32:04.939Z,22.60
2022-08-28T06:34:33.569Z,22.74
2022-08-28T06:37:01.928Z,22.87
2022-08-28T06:39:30.245Z,23.02
2022-08-28T06:41:58.412Z,23.15
2022-08-28T06:44:27.261Z,23.29
2022-08-28T06:46:55.801Z,23.41
2022-08-28T06:49:23.928Z,23.53
2022-08-28T06:51:52.114Z,23.65
2022-08-28T06:54:23.222Z,23.74
2022-08-28T06:56:52.971Z,23.87
2022-08-28T06:59:21.385Z,23.99
2022-08-28T07:01:49.632Z,24.13
2022-08-28T07:04:17.923Z,24.25
2022-08-28T07:06:54.120Z,24.36
2022-08-28T07:09:24.457Z,24.44
2022-08-28T07:11:55.358Z,24.54
2022-08-28T07:14:25.828Z,24.64
2022-08-28T07:16:54.847Z,24.77
2022-08-28T07:19:23.092Z,24.91
2022-08-28T07:21:51.292Z,25.04
2022-08-28T07:24:19.847Z,25.18
2022-08-28T07:26:49.497Z,25.29
2022-08-28T07:29:19.409Z,25.45
2022-08-28T07:31:51.141Z,25.56
2022-08-28T07:34:21.978Z,25.70
2022-08-28T07:36:56.434Z,25.88
2022-08-28T07:39:24.623Z,26.02
2022-08-28T07:41:52.771Z,26.16
2022-08-28T07:44:39.761Z,26.26
2022-08-28T07:47:08.643Z,26.43
2022-08-28T07:49:39.017Z,26.58
2022-08-28T07:52:09.014Z,26.73
2022-08-28T07:54:38.114Z,26.87
2022-08-28T07:57:07.788Z,27.00
2022-08-28T07:59:37.956Z,27.12
2022-08-28T08:02:07.448Z,27.23
2022-08-28T08:04:35.623Z,27.39
2022-08-28T08:07:04.969Z,27.65
2022-08-28T08:09:38.766Z,27.85
2022-08-28T08:12:10.320Z,28.08
2022-08-28T08:14:40.717Z,28.35
2022-08-28T08:17:09.966Z,28.57
2022-08-28T08:19:38.232Z,28.90
2022-08-28T08:22:06.482Z,29.33
2022-08-28T08:24:34.610Z,29.69
2022-08-28T08:27:03.327Z,29.97
2022-08-28T08:29:36.063Z,30.26
2022-08-28T08:32:08.645Z,30.65
2022-08-28T08:34:40.846Z,31.09
2022-08-28T08:37:09.194Z,31.52
2022-08-28T08:39:38.303Z,31.93
2022-08-28T08:42:23.284Z,32.28
2022-08-28T08:44:53.380Z,32.72
2022-08-28T08:47:38.775Z,33.08
2022-08-28T08:50:17.052Z,33.32
2022-08-28T08:52:52.224Z,33.43
2022-08-28T08:55:42.127Z,33.78
2022-08-28T08:58:18.891Z,34.12
2022-08-28T09:00:53.457Z,34.35
2022-08-28T09:03:32.757Z,34.46
2022-08-28T09:06:04.300Z,34.76
2022-08-28T09:08:40.186Z,35.06
2022-08-28T09:11:38.394Z,35.05
2022-08-28T09:15:42.819Z,35.07
2022-08-28T09:18:29.159Z,35.43
2022-08-28T09:20:59.577Z,35.47
2022-08-28T09:23:31.545Z,35.34
2022-08-28T09:26:04.195Z,35.56
2022-08-28T09:28:37.785Z,35.91
2022-08-28T09:31:29.212Z,36.35
2022-08-28T09:34:24.846Z,36.81
2022-08-28T09:36:55.164Z,36.91
2022-08-28T09:39:25.591Z,36.93
2022-08-28T09:42:23.151Z,37.18
2022-08-28T09:45:14.539Z,37.29
2022-08-28T09:47:56.935Z,37.05
2022-08-28T09:50:32.604Z,37.00
2022-08-28T09:53:21.763Z,36.79
2022-08-28T09:55:59.645Z,37.09
2022-08-28T09:58:51.229Z,37.48
2022-08-28T10:01:50.048Z,37.84
2022-08-28T10:04:41.534Z,38.05
2022-08-28T10:07:31.144Z,38.23
2022-08-28T10:10:43.564Z,38.29
2022-08-28T10:13:29.419Z,37.95
2022-08-28T10:16:06.243Z,37.94
2022-08-28T10:18:37.364Z,38.09
2022-08-28T10:21:18.955Z,38.22
2022-08-28T10:24:09.038Z,38.44
2022-08-28T10:26:50.552Z,38.76
2022-08-28T10:29:27.474Z,38.96
2022-08-28T10:31:58.494Z,39.18
2022-08-28T10:34:41.505Z,39.42
2022-08-28T10:37:15.473Z,39.55
2022-08-28T10:39:55.563Z,39.56
2022-08-28T10:42:35.978Z,39.71
2022-08-28T10:45:23.232Z,39.81
2022-08-28T10:48:53.525Z,39.79
2022-08-28T10:51:37.634Z,40.08
2022-08-28T10:54:22.651Z,39.95
2022-08-28T10:57:00.777Z,39.87
2022-08-28T10:59:33.729Z,39.82
2022-08-28T11:02:13.782Z,39.78
2022-08-28T11:04:42.342Z,39.85
2022-08-28T11:07:20.439Z,39.88
2022-08-28T11:09:49.636Z,40.03
2022-08-28T11:12:17.612Z,40.19
2022-08-28T11:14:52.230Z,40.26
2022-08-28T11:17:25.296Z,40.05
2022-08-28T11:19:58.961Z,40.09
2022-08-28T11:22:35.573Z,40.18
2022-08-28T11:25:32.747Z,40.32
2022-08-28T11:28:18.828Z,40.62
2022-08-28T11:31:06.614Z,40.59
2022-08-28T11:33:52.769Z,40.62
2022-08-28T11:36:21.638Z,40.71
2022-08-28T11:38:53.189Z,40.75
2022-08-28T11:41:33.445Z,40.86
2022-08-28T11:44:13.660Z,40.88
2022-08-28T11:46:43.648Z,40.98
2022-08-28T11:49:24.689Z,40.80
2022-08-28T11:52:18.901Z,41.01
2022-08-28T11:54:59.055Z,41.00
2022-08-28T12:00:41.407Z,40.16
2022-08-28T12:03:16.937Z,38.90
2022-08-28T12:05:48.870Z,37.97
2022-08-28T12:08:49.253Z,37.88
2022-08-28T12:11:39.393Z,38.73
2022-08-28T12:14:31.941Z,39.47
2022-08-28T12:17:00.083Z,40.09
2022-08-28T12:19:41.128Z,40.24
2022-08-28T12:22:26.375Z,40.51
2022-08-28T12:25:06.631Z,40.72
2022-08-28T12:27:38.763Z,40.88
2022-08-28T12:30:06.895Z,41.03
2022-08-28T12:32:43.882Z,41.24
2022-08-28T12:35:26.114Z,41.19
2022-08-28T12:37:54.276Z,40.63
2022-08-28T12:40:25.846Z,39.70
2022-08-28T12:43:15.592Z,39.61
2022-08-28T12:45:53.637Z,39.90
2022-08-28T12:48:31.745Z,40.07
2022-08-28T12:51:08.012Z,39.79
2022-08-28T12:53:45.630Z,39.91
2022-08-28T12:56:17.347Z,40.22
2022-08-28T12:58:47.230Z,40.52
2022-08-28T13:01:30.934Z,40.40
2022-08-28T13:04:03.315Z,40.45
2022-08-28T13:06:33.951Z,40.01
2022-08-28T13:09:06.022Z,38.96
2022-08-28T13:11:37.765Z,38.06
2022-08-28T13:14:08.753Z,37.81
2022-08-28T13:16:43.051Z,38.14
2022-08-28T13:19:29.033Z,38.49
2022-08-28T13:22:04.884Z,38.69
2022-08-28T13:24:38.152Z,38.92
2022-08-28T13:27:12.281Z,39.10
2022-08-28T13:29:55.657Z,39.02
2022-08-28T13:32:31.412Z,38.83
2022-08-28T13:35:17.969Z,38.76
2022-08-28T13:37:50.587Z,38.92
2022-08-28T13:40:55.856Z,39.01
2022-08-28T13:43:11.700Z,39.00
2022-08-28T13:45:44.780Z,38.96
2022-08-28T13:48:15.751Z,39.03
2022-08-28T13:50:47.501Z,38.97
2022-08-28T13:53:18.178Z,38.66
2022-08-28T13:55:48.581Z,38.30
2022-08-28T13:58:17.328Z,38.09
2022-08-28T14:00:49.117Z,37.89
2022-08-28T14:03:36.020Z,37.99
2022-08-28T14:06:11.831Z,38.05
2022-08-28T14:08:41.825Z,38.01
2022-08-28T14:11:12.710Z,38.14
2022-08-28T14:13:47.011Z,38.25
2022-08-28T14:16:25.985Z,38.18
2022-08-28T14:18:54.809Z,38.11
2022-08-28T14:21:24.759Z,37.95
2022-08-28T14:23:53.024Z,37.78
2022-08-28T14:26:21.210Z,37.84
2022-08-28T14:28:49.440Z,37.93
2022-08-28T14:31:17.822Z,37.94
2022-08-28T14:33:46.548Z,37.93
2022-08-28T14:36:30.427Z,37.81
2022-08-28T14:39:05.828Z,37.66
2022-08-28T14:41:36.011Z,37.56
2022-08-28T14:44:05.016Z,37.57
2022-08-28T14:46:35.995Z,37.57
2022-08-28T14:49:07.762Z,37.49
2022-08-28T14:51:38.017Z,37.29
2022-08-28T14:54:07.690Z,37.04
2022-08-28T14:56:36.034Z,36.87
2022-08-28T14:59:06.288Z,36.73
2022-08-28T15:01:40.641Z,36.73
2022-08-28T15:04:13.471Z,36.69
2022-08-28T15:06:44.970Z,36.66
2022-08-28T15:09:14.839Z,36.71
2022-08-28T15:11:44.285Z,36.54
2022-08-28T15:14:13.366Z,36.38
2022-08-28T15:16:45.396Z,36.31
2022-08-28T15:19:17.913Z,36.27
2022-08-28T15:21:49.674Z,36.13
2022-08-28T15:24:22.076Z,36.02
2022-08-28T15:26:50.749Z,35.87
2022-08-28T15:29:19.185Z,35.62
2022-08-28T15:31:49.370Z,35.33
2022-08-28T15:34:24.236Z,35.01
2022-08-28T15:36:55.973Z,34.56
2022-08-28T15:39:47.695Z,34.19
2022-08-28T15:42:16.134Z,33.73
2022-08-28T15:44:45.122Z,33.39
2022-08-28T15:47:14.965Z,33.16
2022-08-28T15:49:49.874Z,32.95
2022-08-28T15:52:20.342Z,32.74
2022-08-28T15:54:49.738Z,32.49
2022-08-28T15:57:18.147Z,32.19
2022-08-28T15:59:49.859Z,31.97
2022-08-28T16:02:22.105Z,31.76
2022-08-28T16:04:51.317Z,31.58
2022-08-28T16:07:21.686Z,31.40
2022-08-28T16:09:49.882Z,31.23
2022-08-28T16:12:18.656Z,31.08
2022-08-28T16:14:46.910Z,30.91
2022-08-28T16:17:14.985Z,30.74
2022-08-28T16:19:43.780Z,30.55
2022-08-28T16:22:16.041Z,30.37
2022-08-28T16:24:46.140Z,30.20
2022-08-28T16:27:15.711Z,30.02
2022-08-28T16:29:45.473Z,29.85
2022-08-28T16:32:14.029Z,29.67
2022-08-28T16:34:44.959Z,29.52
2022-08-28T16:37:14.381Z,29.35
2022-08-28T16:39:47.841Z,29.17
2022-08-28T16:42:16.390Z,29.02
2022-08-28T16:44:44.468Z,28.89
2022-08-28T16:47:12.686Z,28.77
2022-08-28T16:49:40.945Z,28.64
2022-08-28T16:52:09.042Z,28.55
2022-08-28T16:54:37.147Z,28.48
2022-08-28T16:57:13.275Z,28.40
2022-08-28T16:59:41.422Z,28.31
2022-08-28T17:02:09.944Z,28.21
2022-08-28T17:04:42.107Z,28.10
2022-08-28T17:07:10.296Z,27.99
2022-08-28T17:09:38.350Z,27.90
2022-08-28T17:12:07.072Z,27.82
2022-08-28T17:14:35.359Z,27.73
2022-08-28T17:17:03.836Z,27.66
2022-08-28T17:19:32.024Z,27.55
2022-08-28T17:22:18.572Z,27.53
2022-08-28T17:24:48.402Z,27.50
2022-08-28T17:27:22.545Z,27.45
2022-08-28T17:29:51.195Z,27.40
2022-08-28T17:32:19.395Z,27.31
2022-08-28T17:34:47.931Z,27.31
2022-08-28T17:37:16.459Z,27.21
2022-08-28T17:39:44.633Z,27.06
2022-08-28T17:42:12.985Z,26.93
2022-08-28T17:44:41.413Z,26.82
2022-08-28T17:47:11.390Z,26.66
2022-08-28T17:49:40.610Z,26.59
2022-08-28T17:52:08.829Z,26.51
2022-08-28T17:54:37.143Z,26.46
2022-08-28T17:57:05.852Z,26.40
2022-08-28T17:59:39.638Z,26.36
2022-08-28T18:02:08.045Z,26.35
2022-08-28T18:04:36.730Z,26.30
2022-08-28T18:07:05.022Z,26.22
2022-08-28T18:09:33.188Z,26.11
2022-08-28T18:12:01.830Z,26.12
2022-08-28T18:14:30.035Z,26.05
2022-08-28T18:16:58.221Z,25.98
2022-08-28T18:19:26.448Z,25.92
2022-08-28T18:21:55.349Z,25.88
2022-08-28T18:24:23.654Z,25.82
2022-08-28T18:26:53.225Z,25.79
2022-08-28T18:29:21.550Z,25.75
2022-08-28T18:31:49.868Z,25.73
2022-08-28T18:34:18.045Z,25.73
2022-08-28T18:36:45.037Z,25.70
2022-08-28T18:39:13.199Z,25.65
2022-08-28T18:41:43.989Z,25.59
2022-08-28T18:44:15.370Z,25.50
2022-08-28T18:46:44.861Z,25.45
2022-08-28T18:49:13.563Z,25.40
2022-08-28T18:51:43.679Z,25.40
2022-08-28T18:54:16.437Z,25.44
2022-08-28T18:56:46.101Z,25.52
2022-08-28T18:59:16.589Z,25.52
2022-08-28T19:01:45.626Z,25.40
2022-08-28T19:04:13.825Z,25.31
2022-08-28T19:06:42.181Z,25.24
2022-08-28T19:09:20.419Z,25.16
2022-08-28T19:11:49.225Z,25.15
2022-08-28T19:14:17.473Z,25.09
2022-08-28T19:16:45.982Z,25.02
2022-08-28T19:19:15.421Z,24.95
2022-08-28T19:21:44.257Z,24.86
2022-08-28T19:24:13.552Z,24.86
2022-08-28T19:26:41.652Z,24.83
2022-08-28T19:29:09.898Z,24.76
2022-08-28T19:31:38.943Z,24.70
2022-08-28T19:34:12.162Z,24.64
2022-08-28T19:36:42.004Z,24.61
2022-08-28T19:39:10.057Z,24.55
2022-08-28T19:41:38.885Z,24.49
2022-08-28T19:44:08.232Z,24.45
2022-08-28T19:46:38.347Z,24.40
2022-08-28T19:49:07.757Z,24.35
2022-08-28T19:51:38.055Z,24.30
2022-08-28T19:54:06.623Z,24.27
2022-08-28T19:56:34.742Z,24.25
2022-08-28T19:59:04.777Z,24.20
2022-08-28T20:01:39.945Z,24.13
2022-08-28T20:04:09.722Z,24.08
2022-08-28T20:06:37.901Z,24.05
2022-08-28T20:09:12.024Z,24.01
2022-08-28T20:11:44.321Z,23.98
2022-08-28T20:14:14.553Z,23.97
2022-08-28T20:16:44.575Z,23.97
2022-08-28T20:19:13.353Z,23.95
2022-08-28T20:21:47.271Z,23.90
2022-08-28T20:24:22.155Z,23.84
2022-08-28T20:26:51.358Z,23.81
2022-08-28T20:29:19.740Z,23.79
2022-08-28T20:31:48.600Z,23.76
2022-08-28T20:34:19.146Z,23.75
2022-08-28T20:36:48.029Z,23.71
2022-08-28T20:39:17.241Z,23.65
2022-08-28T20:41:46.318Z,23.65
2022-08-28T20:44:16.686Z,23.60
2022-08-28T20:46:51.089Z,23.53
2022-08-28T20:49:24.209Z,23.46
2022-08-28T20:52:01.187Z,23.42
2022-08-28T20:54:33.338Z,23.41
2022-08-28T20:57:05.387Z,23.44
2022-08-28T20:59:40.226Z,23.47
2022-08-28T21:02:13.480Z,23.49
2022-08-28T21:04:43.769Z,23.47
2022-08-28T21:07:13.904Z,23.40
2022-08-28T21:10:06.217Z,23.33
2022-08-28T21:12:30.792Z,23.30
2022-08-28T21:14:59.664Z,23.30
2022-08-28T21:17:29.671Z,23.27
2022-08-28T21:20:01.205Z,23.18
2022-08-28T21:22:31.794Z,23.12
2022-08-28T21:25:01.349Z,23.01
2022-08-28T21:27:29.770Z,22.92
2022-08-28T21:30:00.229Z,22.87
2022-08-28T21:32:29.863Z,22.85
2022-08-28T21:34:58.160Z,22.85
2022-08-28T21:37:26.961Z,22.84
2022-08-28T21:39:56.555Z,22.81
2022-08-28T21:42:25.199Z,22.78
2022-08-28T21:44:54.774Z,22.80
2022-08-28T21:47:24.780Z,22.83
2022-08-28T21:49:54.867Z,22.87
2022-08-28T21:52:27.222Z,22.88
2022-08-28T21:55:07.576Z,22.88
2022-08-28T21:57:35.853Z,22.87
2022-08-28T22:00:11.990Z,22.82
2022-08-28T22:02:40.296Z,22.81
2022-08-28T22:05:08.894Z,22.80
2022-08-28T22:07:37.103Z,22.77
2022-08-28T22:10:05.723Z,22.75
2022-08-28T22:12:33.838Z,22.74
2022-08-28T22:15:01.948Z,22.72
2022-08-28T22:17:30.066Z,22.72
2022-08-28T22:19:58.250Z,22.71
2022-08-28T22:22:45.225Z,22.69
2022-08-28T22:25:13.423Z,22.65
2022-08-28T22:27:41.710Z,22.61
2022-08-28T22:30:12.106Z,22.54
2022-08-28T22:32:40.314Z,22.48
2022-08-28T22:35:09.643Z,22.44
2022-08-28T22:37:37.990Z,22.39
2022-08-28T22:40:12.199Z,22.34
2022-08-28T22:42:42.723Z,22.31
2022-08-28T22:45:11.466Z,22.28
2022-08-28T22:47:39.849Z,22.27
2022-08-28T22:50:09.413Z,22.27
2022-08-28T22:52:38.564Z,22.25
2022-08-28T22:55:12.454Z,22.21
2022-08-28T22:57:41.147Z,22.15
2022-08-28T23:00:12.978Z,22.08
2022-08-28T23:02:42.131Z,22.01
2022-08-28T23:05:10.370Z,21.95
2022-08-28T23:07:38.567Z,21.74
2022-08-28T23:10:08.225Z,21.80
2022-08-28T23:12:36.371Z,21.72
2022-08-28T23:15:06.915Z,21.66
2022-08-28T23:17:35.067Z,21.62
2022-08-28T23:20:07.984Z,21.56
2022-08-28T23:22:38.631Z,21.51
2022-08-28T23:25:08.318Z,21.48
2022-08-28T23:27:36.914Z,21.42
2022-08-28T23:30:06.683Z,21.37
2022-08-28T23:32:34.920Z,21.33
2022-08-28T23:35:07.272Z,21.30
2022-08-28T23:37:37.682Z,21.25
2022-08-28T23:40:13.607Z,21.20
2022-08-28T23:42:42.167Z,21.16
2022-08-28T23:45:12.055Z,21.14
2022-08-28T23:47:41.182Z,21.16
2022-08-28T23:50:17.170Z,21.18
2022-08-28T23:52:46.264Z,21.22
2022-08-28T23:55:16.612Z,21.30
2022-08-28T23:57:45.844Z,21.41
